Terminal Aerodrome Forecast
Issued by NWS

Home | Current Version | Previous Version | Text Only | Print | Product List | Glossary On
Versions: 1 2 3 4 5 6 7 8 9 10 11 12 13 14 15 16 17
000
FTUS41 KILN 301100
TAFLUK
TAF
KLUK 301132Z 3012/3112 20006KT P6SM SCT250
     FM301600 21012G18KT P6SM SCT050 SCT100 OVC250
     FM302100 21006KT P6SM VCTS SCT040CB BKN090 OVC250
     FM310300 21003KT P6SM -SHRA VCTS SCT020CB OVC080
     FM310900 00000KT 4SM -SHRA BR VCTS OVC015CB=

USA.gov is the U.S. government's official web portal to all federal, state and local government web resources and services.